createdAt,value
2023-02-11T00:05:16.954Z,30.02
2023-02-11T00:07:47.058Z,29.94
2023-02-11T00:10:16.959Z,29.93
2023-02-11T00:12:46.843Z,29.93
2023-02-11T00:16:50.916Z,29.88
2023-02-11T00:19:23.480Z,29.90
2023-02-11T00:21:53.145Z,29.86
2023-02-11T00:24:22.592Z,29.85
2023-02-11T00:26:52.179Z,29.83
2023-02-11T00:29:21.634Z,29.84
2023-02-11T00:31:51.326Z,29.81
2023-02-11T00:34:20.873Z,29.82
2023-02-11T00:36:51.636Z,29.83
2023-02-11T00:39:21.216Z,29.83
2023-02-11T00:41:50.763Z,29.82
2023-02-11T00:44:20.287Z,29.85
2023-02-11T00:46:50.397Z,29.84
2023-02-11T00:49:19.931Z,29.84
2023-02-11T00:51:51.067Z,29.84
2023-02-11T00:54:20.698Z,29.83
2023-02-11T00:56:50.136Z,29.85
2023-02-11T00:59:19.947Z,29.86
2023-02-11T01:01:51.058Z,29.85
2023-02-11T01:04:20.761Z,29.86
2023-02-11T01:06:50.194Z,29.84
2023-02-11T01:09:19.914Z,29.85
2023-02-11T01:11:50.251Z,29.84
2023-02-11T01:14:19.841Z,29.84
2023-02-11T01:16:50.949Z,29.87
2023-02-11T01:19:23.678Z,29.85
2023-02-11T01:21:53.284Z,29.84
2023-02-11T01:24:24.521Z,29.88
2023-02-11T01:26:54.130Z,29.88
2023-02-11T01:29:26.641Z,29.90
2023-02-11T01:31:57.245Z,29.90
2023-02-11T01:34:28.342Z,29.92
2023-02-11T01:37:01.237Z,29.91
2023-02-11T01:39:31.582Z,29.94
2023-02-11T01:42:04.968Z,29.94
2023-02-11T01:44:36.868Z,29.93
2023-02-11T01:47:08.660Z,29.91
2023-02-11T01:49:44.120Z,29.94
2023-02-11T01:52:25.736Z,29.93
2023-02-11T01:55:15.131Z,29.94
2023-02-11T01:57:48.346Z,29.92
2023-02-11T02:00:23.086Z,29.92
2023-02-11T02:03:03.023Z,29.93
2023-02-11T02:05:32.638Z,29.91
2023-02-11T02:08:12.253Z,29.92
2023-02-11T02:10:46.396Z,29.93
2023-02-11T02:13:16.775Z,29.93
2023-02-11T02:15:53.318Z,29.95
2023-02-11T02:18:35.447Z,29.96
2023-02-11T02:21:15.041Z,29.98
2023-02-11T02:24:14.761Z,30.01
2023-02-11T02:26:44.360Z,30.02
2023-02-11T02:29:13.832Z,30.01
2023-02-11T02:32:16.033Z,30.04
2023-02-11T02:34:53.763Z,30.07
2023-02-11T02:37:29.389Z,30.08
2023-02-11T02:40:00.095Z,30.11
2023-02-11T02:42:29.824Z,30.13
2023-02-11T02:44:59.310Z,30.13
2023-02-11T02:47:28.990Z,30.15
2023-02-11T02:49:59.750Z,30.16
2023-02-11T02:52:35.148Z,30.17
2023-02-11T02:55:04.755Z,30.17
2023-02-11T02:57:37.106Z,30.19
2023-02-11T03:00:14.834Z,30.18
2023-02-11T03:03:02.982Z,30.19
2023-02-11T03:05:51.767Z,30.20
2023-02-11T03:08:35.400Z,30.20
2023-02-11T03:11:05.843Z,30.20
2023-02-11T03:13:36.800Z,30.20
2023-02-11T03:16:10.562Z,30.21
2023-02-11T03:18:42.166Z,30.21
2023-02-11T03:21:12.808Z,30.22
2023-02-11T03:23:59.421Z,30.21
2023-02-11T03:26:32.822Z,30.23
2023-02-11T03:29:02.417Z,30.25
2023-02-11T03:31:46.999Z,30.26
2023-02-11T03:34:35.289Z,30.27
2023-02-11T03:37:15.722Z,30.26
2023-02-11T03:39:54.834Z,30.26
2023-02-11T03:42:26.953Z,30.27
2023-02-11T03:45:00.956Z,30.27
2023-02-11T03:47:34.001Z,30.29
2023-02-11T03:50:06.627Z,30.29
2023-02-11T03:52:37.799Z,30.29
2023-02-11T03:55:10.704Z,30.29
2023-02-11T03:57:40.750Z,30.30
2023-02-11T04:00:12.435Z,30.31
2023-02-11T04:02:42.812Z,30.31
2023-02-11T04:05:13.559Z,30.31
2023-02-11T04:07:43.040Z,30.33
2023-02-11T04:10:13.742Z,30.36
2023-02-11T04:12:43.378Z,30.36
2023-02-11T04:15:12.987Z,30.38
2023-02-11T04:17:44.517Z,30.37
2023-02-11T04:20:14.618Z,30.39
2023-02-11T04:22:44.146Z,30.38
2023-02-11T04:25:13.788Z,30.41
2023-02-11T04:27:43.310Z,30.41
2023-02-11T04:30:13.296Z,30.41
2023-02-11T04:32:42.771Z,30.42
2023-02-11T04:35:14.015Z,30.42
2023-02-11T04:37:43.600Z,30.45
2023-02-11T04:40:13.264Z,30.43
2023-02-11T04:42:43.060Z,30.44
2023-02-11T04:45:12.481Z,30.43
2023-02-11T04:47:42.399Z,30.45
2023-02-11T04:50:12.002Z,30.44
2023-02-11T04:52:41.690Z,30.45
2023-02-11T04:55:11.129Z,30.47
2023-02-11T04:57:40.761Z,30.50
2023-02-11T05:00:12.098Z,30.49
2023-02-11T05:02:41.788Z,30.50
2023-02-11T05:05:11.389Z,30.49
2023-02-11T05:07:40.972Z,30.51
2023-02-11T05:10:10.607Z,30.53
2023-02-11T05:12:40.271Z,30.53
2023-02-11T05:15:09.889Z,30.51
2023-02-11T05:17:39.578Z,30.52
2023-02-11T05:20:09.336Z,30.53
2023-02-11T05:22:38.967Z,30.54
2023-02-11T05:25:08.671Z,30.53
2023-02-11T05:27:39.508Z,30.53
2023-02-11T05:30:09.393Z,30.55
2023-02-11T05:32:38.888Z,30.58
2023-02-11T05:35:08.580Z,30.58
2023-02-11T05:37:38.196Z,30.58
2023-02-11T05:40:08.124Z,30.60
2023-02-11T05:42:37.689Z,30.59
2023-02-11T05:45:07.666Z,30.60
2023-02-11T05:47:37.164Z,30.59
2023-02-11T05:50:07.641Z,30.60
2023-02-11T05:52:37.539Z,30.66
2023-02-11T05:55:07.676Z,30.63
2023-02-11T05:57:37.162Z,30.61
2023-02-11T06:00:08.244Z,30.63
2023-02-11T06:02:57.851Z,30.63
2023-02-11T06:05:27.591Z,30.64
2023-02-11T06:07:57.110Z,30.62
2023-02-11T06:10:27.735Z,30.64
2023-02-11T06:12:57.366Z,30.64
2023-02-11T06:15:26.867Z,30.63
2023-02-11T06:17:56.441Z,30.66
2023-02-11T06:20:25.991Z,30.67
2023-02-11T06:22:55.652Z,30.70
2023-02-11T06:25:25.159Z,30.70
2023-02-11T06:27:56.866Z,30.70
2023-02-11T06:30:26.754Z,30.68
2023-02-11T06:32:56.918Z,30.70
2023-02-11T06:35:26.534Z,30.72
2023-02-11T06:37:56.752Z,30.74
2023-02-11T06:40:26.350Z,30.72
2023-02-11T06:42:56.008Z,30.72
2023-02-11T06:45:25.661Z,30.72
2023-02-11T06:47:55.371Z,30.70
2023-02-11T06:50:25.058Z,30.71
2023-02-11T06:52:54.498Z,30.71
2023-02-11T06:55:24.100Z,30.71
2023-02-11T06:57:53.860Z,30.72
2023-02-11T07:00:23.474Z,30.73
2023-02-11T07:02:53.029Z,30.74
2023-02-11T07:05:22.775Z,30.76
2023-02-11T07:07:52.195Z,30.77
2023-02-11T07:10:21.816Z,30.78
2023-02-11T07:12:51.333Z,30.77
2023-02-11T07:15:21.216Z,30.78
2023-02-11T07:17:50.673Z,30.80
2023-02-11T07:20:20.458Z,30.79
2023-02-11T07:22:49.997Z,30.78
2023-02-11T07:25:19.504Z,30.79
2023-02-11T07:27:48.996Z,30.81
2023-02-11T07:30:18.708Z,30.80
2023-02-11T07:32:48.617Z,30.79
2023-02-11T07:35:18.222Z,30.79
2023-02-11T07:37:47.988Z,30.81
2023-02-11T07:40:17.651Z,30.81
2023-02-11T07:42:48.739Z,30.83
2023-02-11T07:45:18.511Z,30.82
2023-02-11T07:47:48.101Z,30.82
2023-02-11T07:50:18.534Z,30.84
2023-02-11T07:52:48.145Z,30.87
2023-02-11T07:55:17.713Z,30.84
2023-02-11T07:57:47.591Z,30.83
2023-02-11T08:00:19.996Z,30.83
2023-02-11T08:02:50.731Z,30.82
2023-02-11T08:05:20.578Z,30.86
2023-02-11T08:07:53.075Z,30.86
2023-02-11T08:10:23.248Z,30.86
2023-02-11T08:12:52.881Z,30.87
2023-02-11T08:15:22.743Z,30.86
2023-02-11T08:17:52.353Z,30.86
2023-02-11T08:20:21.856Z,30.86
2023-02-11T08:22:51.426Z,30.85
2023-02-11T08:25:20.860Z,30.85
2023-02-11T08:27:50.666Z,30.85
2023-02-11T08:30:20.175Z,30.85
2023-02-11T08:32:49.965Z,30.87
2023-02-11T08:35:19.785Z,30.88
2023-02-11T08:37:49.215Z,30.89
2023-02-11T08:40:18.684Z,30.90
2023-02-11T08:42:48.123Z,30.90
2023-02-11T08:45:17.733Z,30.91
2023-02-11T08:47:47.217Z,30.93
2023-02-11T08:50:16.681Z,30.92
2023-02-11T08:52:46.781Z,30.90
2023-02-11T08:55:16.277Z,30.91
2023-02-11T08:57:45.724Z,30.90
2023-02-11T09:00:15.547Z,30.91
2023-02-11T09:02:45.347Z,30.90
2023-02-11T09:05:14.954Z,30.89
2023-02-11T09:07:45.641Z,30.89
2023-02-11T09:10:15.502Z,30.90
2023-02-11T09:12:45.031Z,30.91
2023-02-11T09:15:14.633Z,30.91
2023-02-11T09:17:44.122Z,30.91
2023-02-11T09:20:13.987Z,30.95
2023-02-11T09:22:43.441Z,30.94
2023-02-11T09:25:13.508Z,30.94
2023-02-11T09:27:43.083Z,30.96
2023-02-11T09:30:13.007Z,30.95
2023-02-11T09:32:43.615Z,30.95
2023-02-11T09:35:13.229Z,30.96
2023-02-11T09:37:42.731Z,30.95
2023-02-11T09:40:14.012Z,30.95
2023-02-11T09:42:50.185Z,30.94
2023-02-11T09:45:30.553Z,30.95
2023-02-11T09:48:06.332Z,30.95
2023-02-11T09:50:42.117Z,30.95
2023-02-11T09:53:20.645Z,30.94
2023-02-11T09:55:54.339Z,30.95
2023-02-11T09:58:35.205Z,30.95
2023-02-11T10:01:15.200Z,30.98
2023-02-11T10:03:54.498Z,30.98
2023-02-11T10:06:40.658Z,30.98
2023-02-11T10:09:15.980Z,30.98
2023-02-11T10:11:48.562Z,30.97
2023-02-11T10:14:19.035Z,30.98
2023-02-11T10:16:54.695Z,30.97
2023-02-11T10:19:24.274Z,30.97
2023-02-11T10:22:10.585Z,30.98
2023-02-11T10:24:41.179Z,30.97
2023-02-11T10:27:23.890Z,30.96
2023-02-11T10:29:59.675Z,30.97
2023-02-11T10:32:33.386Z,30.95
2023-02-11T10:35:05.628Z,30.96
2023-02-11T10:37:35.266Z,30.95
2023-02-11T10:40:04.811Z,30.96
2023-02-11T10:42:34.465Z,30.97
2023-02-11T10:45:05.963Z,30.97
2023-02-11T10:47:40.380Z,30.98
2023-02-11T10:50:29.969Z,30.98
2023-02-11T10:53:14.685Z,31.00
2023-02-11T10:55:52.240Z,30.98
2023-02-11T10:58:26.481Z,30.98
2023-02-11T11:00:58.136Z,30.98
2023-02-11T11:03:39.241Z,30.97
2023-02-11T11:06:11.195Z,30.97
2023-02-11T11:08:42.621Z,30.97
2023-02-11T11:11:16.564Z,30.97
2023-02-11T11:13:55.385Z,30.98
2023-02-11T11:16:32.299Z,30.96
2023-02-11T11:19:11.297Z,30.96
2023-02-11T11:21:43.726Z,30.94
2023-02-11T11:24:22.174Z,30.95
2023-02-11T11:26:53.376Z,30.94
2023-02-11T11:29:26.186Z,30.94
2023-02-11T11:32:01.673Z,30.94
2023-02-11T11:34:36.176Z,30.94
2023-02-11T11:37:12.941Z,30.94
2023-02-11T11:39:42.921Z,30.94
2023-02-11T11:42:27.859Z,30.94
2023-02-11T11:45:00.570Z,30.95
2023-02-11T11:47:30.193Z,30.94
2023-02-11T11:49:59.633Z,30.95
2023-02-11T11:52:29.284Z,30.93
2023-02-11T11:55:03.506Z,30.93
2023-02-11T11:57:34.712Z,30.93
2023-02-11T12:00:04.348Z,30.94
2023-02-11T12:03:00.925Z,30.93
2023-02-11T12:05:50.738Z,30.92
2023-02-11T12:08:20.368Z,30.92
2023-02-11T12:10:55.933Z,30.91
2023-02-11T12:13:28.341Z,30.92
2023-02-11T12:16:04.363Z,30.92
2023-02-11T12:18:52.447Z,30.92
2023-02-11T12:21:40.569Z,30.92
2023-02-11T12:24:17.411Z,30.91
2023-02-11T12:26:55.569Z,30.91
2023-02-11T12:29:25.058Z,30.90
2023-02-11T12:32:00.440Z,30.91
2023-02-11T12:34:52.546Z,30.90
2023-02-11T12:37:31.185Z,30.93
2023-02-11T12:40:12.314Z,30.91
2023-02-11T12:43:12.122Z,30.92
2023-02-11T12:45:51.963Z,30.92
2023-02-11T12:48:27.711Z,30.90
2023-02-11T12:51:01.591Z,30.89
2023-02-11T12:53:38.612Z,30.91
2023-02-11T12:56:14.917Z,30.89
2023-02-11T12:58:45.893Z,30.88
2023-02-11T13:01:22.020Z,30.87
2023-02-11T13:03:56.320Z,30.89
2023-02-11T13:06:36.359Z,30.88
2023-02-11T13:09:08.416Z,30.89
2023-02-11T13:11:43.706Z,30.89
2023-02-11T13:14:31.770Z,30.87
2023-02-11T13:19:46.497Z,31.04
2023-02-11T13:22:26.124Z,30.93
2023-02-11T13:25:08.237Z,30.87
2023-02-11T13:27:50.638Z,30.90
2023-02-11T13:30:32.702Z,30.90
2023-02-11T13:33:05.595Z,30.80
2023-02-11T13:35:43.846Z,30.84
2023-02-11T13:38:27.556Z,30.84
2023-02-11T13:41:10.279Z,30.83
2023-02-11T13:43:40.746Z,30.79
2023-02-11T13:46:15.035Z,30.87
2023-02-11T13:48:56.325Z,30.83
2023-02-11T13:51:41.640Z,30.83
2023-02-11T13:54:33.457Z,30.80
2023-02-11T13:57:29.519Z,30.81
2023-02-11T14:00:11.618Z,30.79
2023-02-11T14:03:00.001Z,30.73
2023-02-11T14:05:52.762Z,30.72
2023-02-11T14:08:45.392Z,30.79
2023-02-11T14:11:28.660Z,30.77
2023-02-11T14:14:16.689Z,30.74
2023-02-11T14:17:04.546Z,30.76
2023-02-11T14:19:41.423Z,30.79
2023-02-11T14:22:52.630Z,30.80
2023-02-11T14:25:27.643Z,30.76
2023-02-11T14:28:12.702Z,30.78
2023-02-11T14:30:57.360Z,30.84
2023-02-11T14:33:43.360Z,30.77
2023-02-11T14:36:18.981Z,30.75
2023-02-11T14:39:17.256Z,30.81
2023-02-11T14:41:51.216Z,30.79
2023-02-11T14:44:25.999Z,30.90
2023-02-11T14:46:57.602Z,30.86
2023-02-11T14:49:42.474Z,30.85
2023-02-11T14:52:36.627Z,30.81
2023-02-11T14:55:17.625Z,30.82
2023-02-11T14:57:48.017Z,30.88
2023-02-11T15:00:25.114Z,30.89
2023-02-11T15:02:56.091Z,30.91
2023-02-11T15:05:29.417Z,30.90
2023-02-11T15:08:06.919Z,30.93
2023-02-11T15:10:46.726Z,30.87
2023-02-11T15:13:24.737Z,30.93
2023-02-11T15:16:02.805Z,30.87
2023-02-11T15:18:40.156Z,30.82
2023-02-11T15:21:11.195Z,30.80
2023-02-11T15:23:43.235Z,30.78
2023-02-11T15:26:23.834Z,30.78
2023-02-11T15:28:58.271Z,30.87
2023-02-11T15:31:32.530Z,30.83
2023-02-11T15:34:11.034Z,30.81
2023-02-11T15:36:41.556Z,30.78
2023-02-11T15:39:40.956Z,30.75
2023-02-11T15:42:44.051Z,30.74
2023-02-11T15:45:31.010Z,30.73
2023-02-11T15:48:16.851Z,30.75
2023-02-11T15:50:54.904Z,30.72
2023-02-11T15:53:31.087Z,30.74
2023-02-11T15:56:08.008Z,30.74
2023-02-11T15:58:44.956Z,30.72
2023-02-11T16:01:15.737Z,30.73
2023-02-11T16:03:46.573Z,30.71
2023-02-11T16:06:22.896Z,30.71
2023-02-11T16:09:01.093Z,30.70
2023-02-11T16:11:33.343Z,30.66
2023-02-11T16:14:06.949Z,30.66
2023-02-11T16:16:37.627Z,30.65
2023-02-11T16:19:08.053Z,30.65
2023-02-11T16:21:47.367Z,30.68
2023-02-11T16:24:32.806Z,30.67
2023-02-11T16:27:09.514Z,30.62
2023-02-11T16:29:40.267Z,30.64
2023-02-11T16:32:12.981Z,30.63
2023-02-11T16:34:43.095Z,30.63
2023-02-11T16:37:13.542Z,30.61
